createdAt,value
2018-02-20T00:00:12.658Z,25.00
2018-02-20T00:02:40.957Z,23.63
2018-02-20T00:05:08.489Z,23.97
2018-02-20T00:07:36.017Z,24.17
2018-02-20T00:10:03.586Z,24.10
2018-02-20T00:12:31.110Z,25.93
2018-02-20T00:14:58.840Z,23.93
2018-02-20T00:17:27.177Z,27.20
2018-02-20T00:19:54.976Z,24.23
2018-02-20T00:22:22.769Z,28.03
2018-02-20T00:24:50.280Z,25.63
2018-02-20T00:27:18.517Z,24.03
2018-02-20T00:29:46.387Z,26.40
2018-02-20T00:32:13.944Z,23.37
2018-02-20T00:34:41.462Z,23.77
2018-02-20T00:37:09.750Z,25.40
2018-02-20T00:39:38.669Z,27.60
2018-02-20T00:42:06.802Z,26.47
2018-02-20T00:44:35.191Z,23.47
2018-02-20T00:47:03.501Z,23.80
2018-02-20T00:49:31.372Z,26.57
2018-02-20T00:51:58.903Z,25.80
2018-02-20T00:54:27.305Z,26.27
2018-02-20T00:56:54.830Z,25.03
2018-02-20T00:59:28.056Z,27.47
2018-02-20T01:01:55.565Z,27.27
2018-02-20T01:04:26.902Z,26.53
2018-02-20T01:06:54.745Z,27.40
2018-02-20T01:09:22.439Z,25.77
2018-02-20T01:11:49.947Z,27.87
2018-02-20T01:14:25.592Z,26.50
2018-02-20T01:16:54.812Z,27.27
2018-02-20T01:19:22.382Z,24.30
2018-02-20T01:21:54.137Z,28.47
2018-02-20T01:24:21.701Z,26.67
2018-02-20T01:26:49.860Z,26.27
2018-02-20T01:29:17.502Z,24.23
2018-02-20T01:31:45.776Z,26.27
2018-02-20T01:34:14.070Z,23.90
2018-02-20T01:36:41.634Z,24.93
2018-02-20T01:39:09.693Z,25.47
2018-02-20T01:41:37.577Z,25.07
2018-02-20T01:44:05.527Z,24.67
2018-02-20T01:46:33.057Z,27.63
2018-02-20T01:49:00.573Z,24.27
2018-02-20T01:51:28.125Z,23.83
2018-02-20T01:53:56.145Z,25.97
2018-02-20T01:56:23.677Z,25.83
2018-02-20T01:58:53.068Z,25.60
2018-02-20T02:01:20.928Z,23.47
2018-02-20T02:03:48.503Z,26.40
2018-02-20T02:06:16.115Z,25.23
2018-02-20T02:08:44.517Z,24.40
2018-02-20T02:11:12.040Z,25.20
2018-02-20T02:13:39.569Z,24.63
2018-02-20T02:16:07.091Z,24.23
2018-02-20T02:18:34.749Z,27.30
2018-02-20T02:21:02.962Z,26.77
2018-02-20T02:23:30.517Z,26.87
2018-02-20T02:25:58.062Z,26.60
2018-02-20T02:28:26.009Z,23.43
2018-02-20T02:30:53.546Z,27.53
2018-02-20T02:33:25.448Z,24.20
2018-02-20T02:35:52.981Z,25.57
2018-02-20T02:38:21.283Z,23.47
2018-02-20T02:40:49.685Z,25.10
2018-02-20T02:43:17.320Z,29.03
2018-02-20T02:45:45.432Z,24.87
2018-02-20T02:48:15.025Z,25.73
2018-02-20T02:50:42.689Z,24.67
2018-02-20T02:53:12.819Z,23.90
2018-02-20T02:55:41.246Z,25.30
2018-02-20T02:58:09.551Z,24.47
2018-02-20T03:00:37.843Z,25.60
2018-02-20T03:03:05.846Z,24.30
2018-02-20T03:05:33.360Z,22.90
2018-02-20T03:08:01.637Z,23.43
2018-02-20T03:10:29.169Z,23.93
2018-02-20T03:13:02.043Z,23.10
2018-02-20T03:15:30.366Z,24.67
2018-02-20T03:17:58.764Z,25.57
2018-02-20T03:20:28.045Z,27.13
2018-02-20T03:22:56.419Z,26.63
2018-02-20T03:25:24.796Z,24.37
2018-02-20T03:27:53.112Z,24.60
2018-02-20T03:30:21.602Z,25.57
2018-02-20T03:32:49.696Z,25.10
2018-02-20T03:35:17.980Z,28.23
2018-02-20T03:37:46.593Z,21.93
2018-02-20T03:40:18.642Z,27.40
2018-02-20T03:42:49.191Z,22.90
2018-02-20T03:45:16.847Z,25.20
2018-02-20T03:47:48.372Z,23.30
2018-02-20T03:50:17.594Z,25.60
2018-02-20T03:52:45.096Z,26.10
2018-02-20T04:08:18.535Z,23.70
2018-02-20T04:10:46.099Z,26.00
2018-02-20T04:13:13.663Z,27.57
2018-02-20T04:15:41.185Z,28.33
2018-02-20T04:18:09.501Z,30.37
2018-02-20T04:20:37.855Z,27.07
2018-02-20T04:23:06.281Z,27.40
2018-02-20T04:25:45.585Z,27.63
2018-02-20T04:28:13.717Z,28.50
2018-02-20T04:30:41.258Z,27.30
2018-02-20T04:33:08.894Z,29.00
2018-02-20T04:35:36.817Z,26.27
2018-02-20T04:38:04.785Z,28.17
2018-02-20T04:40:32.633Z,27.73
2018-02-20T04:43:00.656Z,25.83
2018-02-20T04:45:28.165Z,26.57
2018-02-20T04:47:59.873Z,27.33
2018-02-20T04:50:31.446Z,27.23
2018-02-20T04:52:58.960Z,27.93
2018-02-20T04:55:27.245Z,29.57
2018-02-20T04:57:59.792Z,27.43
2018-02-20T05:00:27.344Z,26.07
2018-02-20T05:02:55.220Z,29.30
2018-02-20T05:05:23.146Z,26.50
2018-02-20T05:07:50.664Z,26.67
2018-02-20T05:10:18.960Z,25.73
2018-02-20T05:12:51.635Z,26.27
2018-02-20T05:15:27.220Z,31.13
2018-02-20T05:17:54.741Z,27.97
2018-02-20T05:20:23.014Z,28.10
2018-02-20T05:22:51.942Z,30.20
2018-02-20T05:25:19.542Z,27.93
2018-02-20T05:27:48.853Z,28.43
2018-02-20T05:30:30.537Z,26.50
2018-02-20T05:32:58.101Z,29.37
2018-02-20T05:35:25.626Z,28.37
2018-02-20T05:37:53.140Z,28.40
2018-02-20T05:40:22.474Z,31.57
2018-02-20T05:42:53.903Z,29.93
2018-02-20T05:45:22.465Z,29.07
2018-02-20T05:47:54.447Z,28.00
2018-02-20T05:50:23.076Z,30.53
2018-02-20T05:52:51.660Z,26.77
2018-02-20T05:55:19.181Z,29.17
2018-02-20T05:57:47.081Z,26.20
2018-02-20T06:00:15.979Z,27.70
2018-02-20T06:02:47.947Z,30.10
2018-02-20T06:05:15.600Z,30.90
2018-02-20T06:07:43.256Z,28.20
2018-02-20T06:10:15.089Z,24.80
2018-02-20T06:12:43.024Z,25.97
2018-02-20T06:15:13.757Z,28.80
2018-02-20T06:17:45.854Z,29.93
2018-02-20T06:20:13.413Z,28.07
2018-02-20T06:22:41.689Z,28.00
2018-02-20T06:25:09.944Z,27.07
2018-02-20T06:27:37.480Z,29.27
2018-02-20T06:30:05.048Z,28.40
2018-02-20T06:32:32.556Z,29.77
2018-02-20T06:35:00.798Z,26.57
2018-02-20T06:37:32.436Z,30.40
2018-02-20T06:40:00.023Z,23.80
2018-02-20T06:42:36.141Z,26.50
2018-02-20T06:45:09.573Z,27.33
2018-02-20T06:47:41.586Z,28.43
2018-02-20T06:50:09.962Z,29.27
2018-02-20T06:52:38.183Z,26.13
2018-02-20T06:55:05.708Z,26.87
2018-02-20T06:57:33.855Z,29.37
2018-02-20T07:00:01.393Z,27.77
2018-02-20T07:02:29.805Z,28.73
2018-02-20T07:04:57.751Z,25.70
2018-02-20T07:07:30.222Z,26.63
2018-02-20T07:09:58.508Z,27.43
2018-02-20T07:12:30.940Z,25.83
2018-02-20T07:14:59.057Z,27.27
2018-02-20T07:17:27.461Z,27.00
2018-02-20T07:19:55.017Z,26.13
2018-02-20T07:22:26.880Z,23.37
2018-02-20T07:24:54.448Z,24.53
2018-02-20T07:27:22.041Z,22.33
2018-02-20T07:29:51.098Z,23.60
2018-02-20T07:32:18.664Z,24.47
2018-02-20T07:34:46.217Z,23.03
2018-02-20T07:37:14.521Z,22.20
2018-02-20T07:39:42.089Z,23.33
2018-02-20T07:42:09.677Z,22.07
2018-02-20T07:44:39.221Z,24.03
2018-02-20T07:47:06.884Z,22.93
2018-02-20T07:49:34.651Z,23.77
2018-02-20T07:52:02.193Z,23.37
2018-02-20T07:54:29.722Z,23.13
2018-02-20T07:56:57.258Z,22.83
2018-02-20T07:59:24.772Z,24.40
2018-02-20T08:01:52.335Z,24.27
2018-02-20T08:04:23.989Z,24.60
2018-02-20T08:06:51.508Z,24.43
2018-02-20T08:09:19.420Z,25.43
2018-02-20T08:11:47.856Z,24.77
2018-02-20T08:14:15.470Z,24.10
2018-02-20T08:29:48.045Z,24.00
2018-02-20T08:45:20.591Z,25.00
2018-02-20T08:47:48.128Z,25.73
2018-02-20T08:50:16.431Z,25.15
2018-02-20T08:52:44.030Z,25.45
2018-02-20T08:55:12.173Z,24.08
2018-02-20T08:57:39.695Z,25.17
2018-02-20T09:00:08.006Z,24.65
2018-02-20T09:02:35.474Z,24.30
2018-02-20T09:05:03.010Z,27.00
2018-02-20T09:07:31.823Z,25.45
2018-02-20T09:09:59.345Z,24.65
2018-02-20T09:12:31.959Z,26.23
2018-02-20T09:14:59.504Z,23.95
2018-02-20T09:17:27.017Z,25.80
2018-02-20T09:19:55.459Z,24.67
2018-02-20T09:22:22.996Z,24.27
2018-02-20T09:24:51.305Z,24.90
2018-02-20T09:27:18.829Z,25.30
2018-02-20T09:29:47.112Z,23.67
2018-02-20T09:32:14.654Z,25.17
2018-02-20T09:34:43.791Z,24.95
2018-02-20T09:37:11.334Z,23.98
2018-02-20T09:39:39.063Z,24.52
2018-02-20T09:42:08.357Z,25.83
2018-02-20T09:44:36.249Z,25.02
2018-02-20T09:47:04.597Z,24.73
2018-02-20T09:49:32.676Z,25.33
2018-02-20T09:52:01.020Z,24.92
2018-02-20T09:54:28.543Z,26.27
2018-02-20T09:56:56.957Z,27.60
2018-02-20T09:59:24.480Z,26.70
2018-02-20T10:01:53.848Z,25.63
2018-02-20T10:04:26.359Z,25.40
2018-02-20T10:06:54.644Z,25.00
2018-02-20T10:09:31.238Z,24.73
2018-02-20T10:11:59.849Z,26.60
2018-02-20T10:14:27.394Z,26.33
2018-02-20T10:16:54.925Z,25.70
2018-02-20T10:19:22.489Z,25.98
2018-02-20T10:21:50.527Z,26.03
2018-02-20T10:24:18.188Z,26.27
2018-02-20T10:26:47.695Z,25.17
2018-02-20T10:29:15.222Z,25.73
2018-02-20T10:31:42.809Z,27.00
2018-02-20T10:34:10.425Z,27.43
2018-02-20T10:36:38.557Z,27.77
2018-02-20T10:39:06.854Z,27.00
2018-02-20T10:41:38.351Z,25.77
2018-02-20T10:44:05.889Z,27.77
2018-02-20T10:46:33.416Z,26.73
2018-02-20T10:49:01.717Z,26.43
2018-02-20T10:51:29.302Z,28.23
2018-02-20T10:53:56.841Z,27.53
2018-02-20T10:56:24.418Z,28.40
2018-02-20T10:58:52.062Z,25.47
2018-02-20T11:01:19.625Z,27.73
2018-02-20T11:03:47.225Z,27.50
2018-02-20T11:06:14.788Z,29.33
2018-02-20T11:08:43.257Z,29.67
2018-02-20T11:11:10.793Z,29.40
2018-02-20T11:13:38.305Z,29.67
2018-02-20T11:16:06.619Z,29.23
2018-02-20T11:18:34.137Z,29.17
2018-02-20T11:21:01.750Z,28.23
2018-02-20T11:25:21.771Z,31.50
2018-02-20T11:27:49.301Z,31.50
2018-02-20T11:30:16.852Z,31.83
2018-02-20T11:32:44.388Z,31.87
2018-02-20T11:35:12.934Z,31.67
2018-02-20T11:37:40.469Z,32.70
2018-02-20T11:40:08.167Z,30.83
2018-02-20T11:42:35.804Z,32.23
2018-02-20T11:45:03.390Z,32.03
2018-02-20T11:47:31.122Z,31.80
2018-02-20T11:49:58.663Z,30.93
2018-02-20T11:52:26.213Z,33.80
2018-02-20T11:54:53.841Z,33.70
2018-02-20T11:57:22.157Z,32.47
2018-02-20T11:59:49.677Z,33.00
2018-02-20T12:02:17.293Z,30.60
2018-02-20T12:04:45.306Z,29.97
2018-02-20T12:07:13.574Z,31.93
2018-02-20T12:09:41.489Z,31.33
2018-02-20T12:12:09.158Z,32.80
2018-02-20T12:14:37.056Z,32.63
2018-02-20T12:17:05.364Z,34.43
2018-02-20T12:19:32.902Z,35.67
2018-02-20T12:22:05.247Z,35.23
2018-02-20T12:24:37.547Z,35.83
2018-02-20T12:27:05.180Z,35.47
2018-02-20T12:29:32.750Z,35.17
2018-02-20T12:32:00.419Z,36.00
2018-02-20T12:34:28.055Z,35.60
2018-02-20T12:36:55.586Z,35.47
2018-02-20T12:39:24.281Z,33.30
2018-02-20T12:41:52.685Z,33.63
2018-02-20T12:44:20.263Z,36.27
2018-02-20T12:46:51.694Z,34.67
2018-02-20T12:49:19.262Z,34.70
2018-02-20T12:51:46.813Z,36.27
2018-02-20T12:54:14.377Z,36.87
2018-02-20T12:56:41.943Z,34.30
2018-02-20T12:59:09.510Z,34.97
2018-02-20T13:01:37.175Z,34.63
2018-02-20T13:04:08.505Z,34.70
2018-02-20T13:06:36.064Z,39.30
2018-02-20T13:09:03.637Z,37.30
2018-02-20T13:11:31.373Z,36.43
2018-02-20T13:13:59.670Z,36.63
2018-02-20T13:16:27.194Z,35.70
2018-02-20T13:18:55.988Z,36.40
2018-02-20T13:21:24.304Z,33.73
2018-02-20T13:23:53.161Z,35.10
2018-02-20T13:26:25.389Z,36.70
2018-02-20T13:28:53.028Z,38.20
2018-02-20T13:31:20.553Z,35.83
2018-02-20T13:33:48.957Z,36.77
2018-02-20T13:36:16.517Z,35.63
2018-02-20T13:38:47.837Z,33.70
2018-02-20T13:41:16.151Z,33.17
2018-02-20T13:43:49.274Z,35.10
2018-02-20T13:46:16.807Z,35.93
2018-02-20T13:48:45.482Z,35.10
2018-02-20T13:51:13.058Z,36.47
2018-02-20T13:53:40.589Z,33.30
2018-02-20T14:09:13.221Z,35.13
2018-02-20T14:11:41.490Z,36.33
2018-02-20T14:14:13.171Z,36.07
2018-02-20T14:16:41.469Z,35.63
2018-02-20T14:19:09.762Z,35.90
2018-02-20T14:21:37.302Z,36.53
2018-02-20T14:24:04.826Z,34.67
2018-02-20T14:26:32.357Z,33.37
2018-02-20T14:29:00.624Z,34.03
2018-02-20T14:31:28.910Z,34.97
2018-02-20T14:33:56.664Z,35.07
2018-02-20T14:36:24.472Z,37.03
2018-02-20T14:38:52.001Z,35.50
2018-02-20T14:41:20.269Z,35.03
2018-02-20T14:43:47.820Z,33.27
2018-02-20T14:46:15.357Z,34.57
2018-02-20T14:48:42.885Z,33.60
2018-02-20T14:51:10.509Z,34.03
2018-02-20T14:53:38.265Z,35.13
2018-02-20T14:56:05.801Z,34.80
2018-02-20T14:58:33.481Z,35.60
2018-02-20T15:01:01.005Z,32.97
2018-02-20T15:03:29.418Z,35.50
2018-02-20T15:05:57.818Z,33.30
2018-02-20T15:08:25.969Z,34.83
2018-02-20T15:10:53.852Z,34.47
2018-02-20T15:26:27.183Z,33.30
2018-02-20T15:28:54.843Z,36.47
2018-02-20T15:33:58.327Z,35.20
2018-02-20T15:36:27.070Z,36.37
2018-02-20T15:38:55.641Z,35.63
2018-02-20T15:41:24.804Z,36.27
2018-02-20T15:43:53.022Z,33.63
2018-02-20T15:46:26.181Z,36.57
2018-02-20T15:48:54.119Z,35.43
2018-02-20T15:51:21.653Z,33.93
2018-02-20T15:53:49.953Z,37.87
2018-02-20T15:56:18.440Z,33.87
2018-02-20T15:58:45.974Z,38.23
